Time;durP1;ratioP1;P1;durP2;ratioP2;P2;SDS_P1;SDS_P2;PMS_P1;PMS_P2;Temp;Humidity;BMP_temperature;BMP_pressure;BME280_temperature;BME280_humidity;BME280_pressure;Samples;Min_cycle;Max_cycle;Signal;HPM_P1;HPM_P2
2022/02/15 00:02:09;;;;;;;6.63;3.27;;;8.50;99.90;;;;;;4997146;28;20227;-88
2022/02/15 00:04:35;;;;;;;7.63;3.23;;;8.50;99.90;;;;;;4998097;28;20176;-89
2022/02/15 00:07:02;;;;;;;9.67;3.50;;;8.50;99.90;;;;;;4998141;28;20182;-88
2022/02/15 00:09:27;;;;;;;7.60;3.30;;;8.50;99.90;;;;;;4998184;28;20194;-88
2022/02/15 00:11:53;;;;;;;7.10;3.13;;;8.50;99.90;;;;;;4997903;28;20648;-89
2022/02/15 00:14:19;;;;;;;7.20;3.10;;;8.50;99.90;;;;;;4997902;28;20279;-89
2022/02/15 00:16:45;;;;;;;13.43;3.83;;;8.50;99.90;;;;;;4997842;28;20261;-89
2022/02/15 00:19:10;;;;;;;9.50;3.37;;;8.70;99.90;;;;;;4997911;28;20560;-88
2022/02/15 00:21:36;;;;;;;6.90;3.40;;;8.70;99.90;;;;;;5008467;28;20179;-89
2022/02/15 00:24:01;;;;;;;8.10;3.30;;;8.60;99.90;;;;;;4998601;28;20208;-89
2022/02/15 00:26:27;;;;;;;6.50;3.33;;;8.60;99.90;;;;;;4997629;28;20176;-89
2022/02/15 00:28:53;;;;;;;10.20;3.80;;;8.60;99.90;;;;;;4997644;28;20273;-89
2022/02/15 00:31:19;;;;;;;9.33;3.00;;;8.60;99.90;;;;;;5002706;28;20203;-89
2022/02/15 00:33:45;;;;;;;8.63;4.10;;;8.70;99.90;;;;;;5014407;28;20196;-89
2022/02/15 00:36:10;;;;;;;8.93;3.40;;;8.70;99.90;;;;;;5019212;28;20193;-89
2022/02/15 00:38:36;;;;;;;9.70;3.17;;;8.80;99.90;;;;;;5019847;28;20215;-89
2022/02/15 00:41:03;;;;;;;10.33;3.33;;;8.70;99.90;;;;;;5012874;28;20562;-89
2022/02/15 00:43:29;;;;;;;7.93;3.97;;;8.80;99.90;;;;;;5004133;28;20198;-89
2022/02/15 00:45:54;;;;;;;10.40;3.33;;;8.90;99.90;;;;;;5016764;28;20191;-89
2022/02/15 00:48:20;;;;;;;11.13;4.00;;;8.90;99.90;;;;;;5016968;28;20273;-89
2022/02/15 00:50:46;;;;;;;9.27;3.30;;;9.00;99.90;;;;;;5016998;28;20179;-89
2022/02/15 00:53:11;;;;;;;11.53;3.40;;;9.00;99.90;;;;;;5017015;28;20183;-89
2022/02/15 00:55:37;;;;;;;7.43;3.63;;;8.90;99.90;;;;;;5016835;28;20183;-88
2022/02/15 00:58:03;;;;;;;11.17;3.77;;;8.90;99.90;;;;;;5016859;28;20660;-89
2022/02/15 01:00:28;;;;;;;8.43;3.57;;;8.90;99.90;;;;;;5016298;28;20290;-89
2022/02/15 01:02:54;;;;;;;8.23;3.80;;;8.90;99.90;;;;;;5016639;28;20229;-89
2022/02/15 01:05:19;;;;;;;9.67;3.87;;;8.80;99.90;;;;;;5016657;28;20176;-88
2022/02/15 01:07:45;;;;;;;25.40;4.53;;;8.80;99.90;;;;;;5016731;28;20182;-88
2022/02/15 01:10:11;;;;;;;10.37;3.50;;;8.80;99.90;;;;;;5016735;28;20188;-88
2022/02/15 01:12:36;;;;;;;13.93;4.20;;;8.60;99.90;;;;;;5016370;28;20651;-88
2022/02/15 01:15:04;;;;;;;12.80;4.33;;;8.60;99.90;;;;;;5016232;28;20202;-88
2022/02/15 01:17:29;;;;;;;9.60;3.90;;;8.50;99.90;;;;;;5016478;28;20191;-89
2022/02/15 01:19:55;;;;;;;7.27;3.93;;;8.70;99.90;;;;;;5016429;28;20189;-88
2022/02/15 01:22:20;;;;;;;8.27;4.10;;;8.80;99.90;;;;;;5016475;28;20190;-89
2022/02/15 01:24:46;;;;;;;10.70;4.20;;;8.90;99.90;;;;;;5016391;28;20187;-89
2022/02/15 01:27:12;;;;;;;11.80;4.70;;;8.90;99.90;;;;;;5016481;28;20187;-89
2022/02/15 01:29:37;;;;;;;9.17;4.73;;;8.80;99.90;;;;;;5015918;28;20262;-89
2022/02/15 01:32:04;;;;;;;11.33;4.67;;;8.70;99.90;;;;;;5016138;28;20183;-89
2022/02/15 01:34:29;;;;;;;9.70;4.47;;;8.70;99.90;;;;;;5016238;28;20168;-89
2022/02/15 01:36:55;;;;;;;13.47;4.80;;;8.70;99.90;;;;;;5016145;28;20176;-89
2022/02/15 01:39:21;;;;;;;8.43;4.57;;;8.70;99.90;;;;;;5016403;28;20216;-89
2022/02/15 01:41:46;;;;;;;11.27;5.10;;;8.70;99.90;;;;;;5015737;28;20186;-89
2022/02/15 01:44:12;;;;;;;13.43;5.27;;;8.60;99.90;;;;;;5016245;28;20589;-89
2022/02/15 01:46:39;;;;;;;12.63;5.40;;;8.60;99.90;;;;;;5015892;28;20229;-89
2022/02/15 01:49:05;;;;;;;11.90;5.30;;;8.70;99.90;;;;;;5016034;28;20235;-89
2022/02/15 01:51:31;;;;;;;13.37;5.83;;;8.80;99.90;;;;;;5015848;28;20175;-89
2022/02/15 01:53:57;;;;;;;11.70;5.00;;;8.80;99.90;;;;;;5015989;28;20194;-89
2022/02/15 01:56:24;;;;;;;13.00;5.40;;;8.70;99.90;;;;;;5015629;28;20265;-89
2022/02/15 01:58:49;;;;;;;11.70;6.13;;;8.70;99.90;;;;;;5015838;28;20588;-89
2022/02/15 02:01:16;;;;;;;14.53;5.73;;;8.70;99.90;;;;;;5015525;28;20214;-89
2022/02/15 02:03:42;;;;;;;9.17;5.60;;;8.70;99.90;;;;;;5015917;28;20303;-89
2022/02/15 02:06:07;;;;;;;16.77;6.00;;;8.60;99.90;;;;;;5015843;28;20630;-89
2022/02/15 02:08:35;;;;;;;13.77;5.97;;;8.50;99.90;;;;;;5015963;28;20187;-89
2022/02/15 02:11:03;;;;;;;11.27;6.17;;;8.50;99.90;;;;;;5015209;28;20185;-89
2022/02/15 02:13:29;;;;;;;15.33;6.50;;;8.60;99.90;;;;;;5015818;28;20248;-89
2022/02/15 02:15:55;;;;;;;13.17;6.30;;;8.60;99.90;;;;;;5015710;28;20620;-89
2022/02/15 02:18:20;;;;;;;17.37;6.23;;;8.70;99.90;;;;;;5015709;28;20225;-89
2022/02/15 02:20:46;;;;;;;16.37;6.30;;;8.70;99.90;;;;;;5015655;28;20186;-89
2022/02/15 02:23:14;;;;;;;15.97;6.60;;;8.70;99.90;;;;;;5015724;28;20277;-89
2022/02/15 02:25:40;;;;;;;14.83;7.03;;;8.60;99.90;;;;;;5019016;28;20175;-89
2022/02/15 02:28:06;;;;;;;16.03;7.60;;;8.50;99.90;;;;;;5019653;28;20186;-89
2022/02/15 02:30:32;;;;;;;14.63;7.63;;;8.50;99.90;;;;;;5019550;28;20635;-89
2022/02/15 02:32:58;;;;;;;16.00;6.73;;;8.60;99.90;;;;;;5019708;28;20189;-89
2022/02/15 02:35:24;;;;;;;19.23;7.90;;;8.60;99.90;;;;;;5019517;28;20179;-89
2022/02/15 02:37:49;;;;;;;13.77;7.27;;;8.60;99.90;;;;;;5019159;28;20204;-89
2022/02/15 02:40:16;;;;;;;16.67;8.43;;;8.50;99.90;;;;;;5019169;28;20183;-89
2022/02/15 02:42:43;;;;;;;12.00;7.70;;;8.50;99.90;;;;;;5019255;28;20206;-89
2022/02/15 02:45:12;;;;;;;17.80;8.33;;;8.50;99.90;;;;;;5019258;28;20183;-88
2022/02/15 02:47:41;;;;;;;17.93;8.27;;;8.50;99.90;;;;;;5019183;28;20178;-89
2022/02/15 02:50:07;;;;;;;13.13;7.63;;;8.60;99.90;;;;;;5019286;28;20179;-89
2022/02/15 02:52:32;;;;;;;18.03;7.63;;;8.60;99.90;;;;;;5019353;28;20528;-89
2022/02/15 02:54:58;;;;;;;11.10;7.43;;;8.60;99.90;;;;;;5019191;28;20539;-89
2022/02/15 02:57:24;;;;;;;18.53;7.87;;;8.60;99.90;;;;;;5018892;28;20226;-89
2022/02/15 02:59:50;;;;;;;19.43;9.13;;;8.70;99.90;;;;;;5019140;28;20183;-89
2022/02/15 03:02:16;;;;;;;20.57;9.13;;;8.50;99.90;;;;;;5018429;28;20229;-89
2022/02/15 03:04:42;;;;;;;15.03;8.43;;;8.30;99.90;;;;;;5019007;28;20248;-88
2022/02/15 03:07:08;;;;;;;14.63;8.07;;;8.30;99.90;;;;;;5018928;28;20537;-88
2022/02/15 03:09:34;;;;;;;13.83;8.60;;;8.20;99.90;;;;;;5018767;28;20183;-89
2022/02/15 03:12:00;;;;;;;16.40;7.97;;;8.20;99.90;;;;;;5018864;28;20268;-88
2022/02/15 03:14:26;;;;;;;12.00;7.87;;;8.20;99.90;;;;;;5019036;28;20175;-89
2022/02/15 03:16:51;;;;;;;16.07;8.33;;;8.20;99.90;;;;;;5019051;28;20662;-88
2022/02/15 03:19:17;;;;;;;12.47;8.37;;;8.20;99.90;;;;;;5019408;28;20214;-89
2022/02/15 03:21:43;;;;;;;15.73;8.03;;;8.20;99.90;;;;;;5021806;28;20622;-89
2022/02/15 03:24:10;;;;;;;17.27;9.20;;;8.20;99.90;;;;;;5019280;28;20178;-88
2022/02/15 03:26:36;;;;;;;22.60;9.87;;;8.20;99.90;;;;;;5018705;28;20552;-88
2022/02/15 03:29:02;;;;;;;20.07;9.43;;;8.30;99.90;;;;;;5018136;28;20287;-88
2022/02/15 03:31:28;;;;;;;17.10;9.57;;;8.40;99.90;;;;;;5018805;28;20213;-88
2022/02/15 03:33:53;;;;;;;21.90;9.30;;;8.50;99.90;;;;;;5018493;28;20189;-89
2022/02/15 03:36:19;;;;;;;18.87;9.33;;;8.40;99.90;;;;;;5018314;28;20179;-89
2022/02/15 03:38:46;;;;;;;20.63;9.70;;;8.50;99.90;;;;;;5018018;28;20214;-88
2022/02/15 03:43:56;;;;;;;18.03;9.00;;;8.40;99.90;;;;;;5036039;28;20201;-89
2022/02/15 03:46:22;;;;;;;17.03;8.47;;;8.40;99.90;;;;;;5018129;28;20174;-88
2022/02/15 03:48:48;;;;;;;17.20;8.60;;;8.40;99.90;;;;;;5018137;28;20183;-89
2022/02/15 03:51:14;;;;;;;16.67;8.83;;;8.40;99.90;;;;;;5018332;28;20191;-89
2022/02/15 03:53:41;;;;;;;16.43;8.50;;;8.50;99.90;;;;;;5018143;28;20179;-89
2022/02/15 03:56:09;;;;;;;18.60;8.37;;;8.50;99.90;;;;;;5018031;28;20178;-89
2022/02/15 03:58:35;;;;;;;17.87;8.30;;;8.50;99.90;;;;;;5017688;28;20225;-88
2022/02/15 04:01:01;;;;;;;17.77;8.10;;;8.40;99.90;;;;;;5017725;28;20230;-89
2022/02/15 04:03:27;;;;;;;17.03;7.60;;;8.30;99.90;;;;;;5017852;28;20626;-89
2022/02/15 04:05:54;;;;;;;13.67;7.43;;;8.40;99.90;;;;;;5017837;28;20187;-88
2022/02/15 04:08:22;;;;;;;12.53;7.37;;;8.40;99.90;;;;;;5017631;28;20185;-89
2022/02/15 04:10:48;;;;;;;13.80;7.40;;;8.50;99.90;;;;;;5017883;28;20189;-89
2022/02/15 04:13:14;;;;;;;14.93;7.60;;;8.40;99.90;;;;;;5017547;28;20580;-88
2022/02/15 04:15:40;;;;;;;14.57;7.27;;;8.40;99.90;;;;;;5017522;28;20220;-89
2022/02/15 04:18:05;;;;;;;18.03;7.70;;;8.30;99.90;;;;;;5017615;28;20635;-88
2022/02/15 04:20:32;;;;;;;13.20;7.23;;;8.30;99.90;;;;;;5017853;28;20589;-89
2022/02/15 04:22:58;;;;;;;16.50;6.77;;;8.30;99.90;;;;;;5017490;28;20185;-88
2022/02/15 04:25:24;;;;;;;13.67;7.13;;;8.40;99.90;;;;;;5017272;28;20181;-89
2022/02/15 04:27:49;;;;;;;11.30;7.23;;;8.40;99.90;;;;;;5017642;28;20187;-89
2022/02/15 04:30:15;;;;;;;15.20;7.70;;;8.30;99.90;;;;;;5016950;28;20576;-89
2022/02/15 04:32:40;;;;;;;15.23;7.30;;;8.30;99.90;;;;;;5017618;28;20694;-89
2022/02/15 04:35:08;;;;;;;13.77;7.03;;;8.30;99.90;;;;;;5017329;28;20186;-89
2022/02/15 04:37:33;;;;;;;14.73;7.63;;;8.30;99.90;;;;;;5016977;28;20190;-89
2022/02/15 04:39:59;;;;;;;15.13;7.10;;;8.40;99.90;;;;;;5016976;28;20183;-88
2022/02/15 04:42:25;;;;;;;11.23;6.87;;;8.30;99.90;;;;;;5017259;28;20229;-89
2022/02/15 04:44:50;;;;;;;15.00;7.90;;;8.30;99.90;;;;;;5016980;28;20620;-89
2022/02/15 04:47:16;;;;;;;13.87;7.17;;;8.30;99.90;;;;;;5016760;28;20232;-89
2022/02/15 04:49:42;;;;;;;15.53;6.73;;;8.20;99.90;;;;;;5017072;28;20238;-89
2022/02/15 04:52:07;;;;;;;17.17;8.10;;;8.10;99.90;;;;;;5016845;28;20178;-89
2022/02/15 04:54:33;;;;;;;16.87;8.00;;;8.10;99.90;;;;;;5034456;28;20187;-89
2022/02/15 04:56:59;;;;;;;16.80;7.30;;;8.10;99.90;;;;;;5016615;28;20206;-88
2022/02/15 04:59:24;;;;;;;17.93;6.80;;;8.20;99.90;;;;;;5016503;28;20214;-88
2022/02/15 05:01:50;;;;;;;15.33;7.27;;;8.20;99.90;;;;;;5016724;28;20218;-88
2022/02/15 05:07:00;;;;;;;15.10;7.57;;;8.20;99.90;;;;;;5034297;28;20583;-88
2022/02/15 05:09:27;;;;;;;11.90;7.43;;;8.20;99.90;;;;;;5016670;28;20176;-88
2022/02/15 05:11:53;;;;;;;15.07;7.20;;;8.10;99.90;;;;;;5016602;28;20187;-88
2022/02/15 05:14:20;;;;;;;11.83;6.70;;;8.20;99.90;;;;;;5016372;28;20184;-88
2022/02/15 05:16:46;;;;;;;14.77;7.57;;;8.10;99.90;;;;;;5016577;28;20685;-89
2022/02/15 05:19:12;;;;;;;14.27;7.43;;;8.10;99.90;;;;;;5016242;28;20211;-89
2022/02/15 05:21:38;;;;;;;14.73;7.17;;;8.00;99.90;;;;;;5016234;28;20225;-88
2022/02/15 05:24:04;;;;;;;14.60;7.63;;;8.00;99.90;;;;;;5016480;28;20184;-88
2022/02/15 05:26:30;;;;;;;20.73;7.53;;;8.00;99.90;;;;;;5016234;28;20210;-88
2022/02/15 05:28:56;;;;;;;15.37;6.50;;;7.90;99.90;;;;;;5016658;28;20186;-89
2022/02/15 05:31:21;;;;;;;20.37;7.47;;;7.90;99.90;;;;;;5016249;28;20190;-88
2022/02/15 05:33:47;;;;;;;13.93;7.20;;;7.90;99.90;;;;;;5016500;28;20677;-88
2022/02/15 05:36:12;;;;;;;13.83;6.70;;;7.90;99.90;;;;;;5016156;28;20228;-88
2022/02/15 05:38:38;;;;;;;13.50;6.67;;;7.90;99.90;;;;;;5016255;28;20213;-88
2022/02/15 05:41:04;;;;;;;15.73;6.80;;;8.00;99.90;;;;;;5015940;28;20182;-88
2022/02/15 05:43:30;;;;;;;12.03;5.87;;;8.00;99.90;;;;;;5016158;28;20197;-88
2022/02/15 05:45:55;;;;;;;11.40;6.53;;;7.90;99.90;;;;;;5012223;28;20191;-88
2022/02/15 05:48:21;;;;;;;16.33;7.20;;;8.00;99.90;;;;;;5006696;28;20298;-88
2022/02/15 05:50:49;;;;;;;13.57;6.20;;;8.00;99.90;;;;;;4998617;28;20179;-88
2022/02/15 05:53:25;;;;;;;15.50;6.37;;;7.90;99.90;;;;;;5003888;28;20675;-88
2022/02/15 05:55:54;;;;;;;15.50;6.90;;;7.80;99.90;;;;;;5012396;28;20189;-88
2022/02/15 05:58:21;;;;;;;12.57;5.60;;;7.80;99.90;;;;;;5015090;28;20226;-88
2022/02/15 06:00:46;;;;;;;15.53;6.60;;;7.70;99.90;;;;;;5015283;28;20690;-88
2022/02/15 06:05:56;;;;;;;14.23;5.77;;;7.80;99.90;;;;;;5033627;28;20309;-88
2022/02/15 06:08:22;;;;;;;11.60;6.13;;;7.70;99.90;;;;;;5016354;28;20462;-88
2022/02/15 06:10:47;;;;;;;14.53;5.27;;;7.80;99.90;;;;;;5017451;28;20554;-87
2022/02/15 06:13:14;;;;;;;11.57;5.47;;;7.70;99.90;;;;;;5016301;28;20189;-88
2022/02/15 06:15:39;;;;;;;11.00;5.13;;;7.70;99.90;;;;;;5015592;28;20192;-87
2022/02/15 06:18:05;;;;;;;11.90;4.97;;;7.80;99.90;;;;;;5015382;28;20587;-86
2022/02/15 06:20:31;;;;;;;9.23;4.57;;;7.70;99.90;;;;;;5015671;28;20649;-87
2022/02/15 06:22:56;;;;;;;10.53;4.43;;;7.60;99.90;;;;;;5015654;28;20173;-88
2022/02/15 06:25:23;;;;;;;10.20;3.93;;;7.60;99.90;;;;;;5015751;28;20188;-89
2022/02/15 06:27:49;;;;;;;9.80;4.37;;;7.70;99.90;;;;;;5015681;28;20183;-89
2022/02/15 06:30:15;;;;;;;10.77;4.23;;;7.80;99.90;;;;;;5015458;28;20191;-88
2022/02/15 06:32:41;;;;;;;9.93;4.17;;;7.70;99.90;;;;;;5015352;28;20182;-89
2022/02/15 06:35:07;;;;;;;14.03;4.10;;;7.80;99.90;;;;;;5015629;28;20174;-89
2022/02/15 06:37:34;;;;;;;7.83;3.70;;;7.70;99.90;;;;;;5015267;28;20188;-89
2022/02/15 06:40:00;;;;;;;8.87;3.70;;;7.70;99.90;;;;;;5015698;28;20687;-88
2022/02/15 06:42:26;;;;;;;9.40;3.53;;;7.50;99.90;;;;;;5015337;28;20663;-88
2022/02/15 06:44:51;;;;;;;9.80;3.67;;;7.50;99.90;;;;;;5015630;28;20188;-88
2022/02/15 06:47:17;;;;;;;8.93;3.60;;;7.60;99.90;;;;;;5015225;28;20278;-89
2022/02/15 06:49:43;;;;;;;8.33;3.43;;;7.50;99.90;;;;;;5015377;28;20186;-88
2022/02/15 06:52:08;;;;;;;12.47;4.10;;;7.50;99.90;;;;;;5015292;28;20181;-88
2022/02/15 06:54:34;;;;;;;6.57;3.00;;;7.50;99.90;;;;;;5015751;28;20175;-88
2022/02/15 06:56:59;;;;;;;10.50;3.37;;;7.50;99.90;;;;;;5015465;28;20187;-89
2022/02/15 06:59:25;;;;;;;7.33;3.13;;;7.50;99.90;;;;;;5015362;28;20316;-89
2022/02/15 07:01:51;;;;;;;11.20;3.53;;;7.50;99.90;;;;;;5014863;28;20220;-88
2022/02/15 07:04:16;;;;;;;5.47;3.20;;;7.50;99.90;;;;;;5015495;28;20177;-88
2022/02/15 07:06:43;;;;;;;10.77;3.00;;;7.40;99.90;;;;;;5015464;28;20311;-89
2022/02/15 07:09:09;;;;;;;11.73;3.27;;;7.40;99.90;;;;;;5015179;28;20696;-88
2022/02/15 07:11:34;;;;;;;10.40;3.27;;;7.50;99.90;;;;;;5018150;28;20189;-88
2022/02/15 07:14:00;;;;;;;11.73;3.10;;;7.40;99.90;;;;;;5018879;28;20664;-89
2022/02/15 07:16:26;;;;;;;8.37;2.77;;;7.40;99.90;;;;;;5018462;28;20174;-88
2022/02/15 07:18:51;;;;;;;8.07;3.23;;;7.30;99.90;;;;;;5018365;28;20312;-88
2022/02/15 07:21:17;;;;;;;10.70;3.20;;;7.30;99.90;;;;;;5018587;28;20176;-88
2022/02/15 07:23:43;;;;;;;9.00;3.20;;;7.30;99.90;;;;;;5018755;28;20185;-88
2022/02/15 07:26:09;;;;;;;6.83;2.80;;;7.40;99.90;;;;;;5018869;28;20212;-88
2022/02/15 07:28:35;;;;;;;6.27;2.47;;;7.30;99.90;;;;;;5018661;28;20208;-88
2022/02/15 07:31:00;;;;;;;10.70;2.77;;;7.30;99.90;;;;;;5018572;28;20273;-88
2022/02/15 07:33:26;;;;;;;8.87;2.47;;;7.30;99.90;;;;;;5018386;28;20244;-87
2022/02/15 07:35:51;;;;;;;8.87;3.20;;;7.30;99.90;;;;;;5018770;28;20180;-90
2022/02/15 07:38:17;;;;;;;5.07;2.63;;;7.30;99.90;;;;;;5018190;28;20587;-88
2022/02/15 07:40:43;;;;;;;7.70;3.10;;;7.30;99.90;;;;;;5018326;28;20240;-89
2022/02/15 07:43:09;;;;;;;12.27;3.67;;;7.30;99.90;;;;;;5018334;28;20178;-90
2022/02/15 07:45:37;;;;;;;6.63;2.67;;;7.20;99.90;;;;;;5018498;28;20209;-90
2022/02/15 07:48:03;;;;;;;7.30;3.00;;;7.30;99.90;;;;;;5018229;28;20185;-90
2022/02/15 07:50:29;;;;;;;9.00;2.70;;;7.20;99.90;;;;;;5017965;28;20179;-90
2022/02/15 07:52:57;;;;;;;7.40;2.80;;;7.20;99.90;;;;;;5019200;28;20701;-90
2022/02/15 07:55:23;;;;;;;13.77;3.00;;;7.20;99.90;;;;;;5017832;28;20189;-88
2022/02/15 07:57:49;;;;;;;6.13;2.60;;;7.20;99.90;;;;;;5017970;28;20197;-87
2022/02/15 08:00:21;;;;;;;5.37;2.27;;;7.20;99.90;;;;;;5017428;28;20630;-88
2022/02/15 08:02:48;;;;;;;11.70;2.83;;;7.30;99.90;;;;;;5017883;28;20186;-88
2022/02/15 08:05:14;;;;;;;6.20;2.10;;;7.20;99.90;;;;;;5018113;28;20266;-87
2022/02/15 08:07:54;;;;;;;8.80;2.17;;;7.20;99.90;;;;;;5017859;28;20204;-87
2022/02/15 08:10:20;;;;;;;8.50;2.30;;;7.20;99.90;;;;;;5010564;28;20174;-83
2022/02/15 08:12:55;;;;;;;11.30;2.43;;;7.10;99.90;;;;;;5028104;28;20305;-83
2022/02/15 08:15:23;;;;;;;8.27;2.30;;;7.20;99.90;;;;;;5027340;28;20236;-84
2022/02/15 08:17:49;;;;;;;7.30;2.20;;;7.20;99.90;;;;;;5008408;28;20212;-82
2022/02/15 08:20:15;;;;;;;6.97;2.37;;;7.20;99.90;;;;;;5016701;28;20637;-85
2022/02/15 08:22:41;;;;;;;10.07;2.03;;;7.10;99.90;;;;;;5033685;28;20189;-84
2022/02/15 08:25:07;;;;;;;12.40;2.83;;;7.10;99.90;;;;;;5016920;28;20612;-86
2022/02/15 08:27:33;;;;;;;6.47;1.73;;;7.10;99.90;;;;;;5032164;28;20194;-82
2022/02/15 08:29:59;;;;;;;5.40;2.13;;;7.20;99.90;;;;;;5005629;28;20567;-84
2022/02/15 08:32:24;;;;;;;8.53;1.77;;;7.30;99.90;;;;;;5005852;28;20196;-84
2022/02/15 08:34:50;;;;;;;6.97;2.07;;;7.30;99.90;;;;;;4997520;28;20181;-81
2022/02/15 08:37:16;;;;;;;8.90;1.90;;;7.30;99.90;;;;;;4997168;28;20241;-86
2022/02/15 08:39:41;;;;;;;8.50;2.13;;;7.20;99.90;;;;;;5002070;28;20282;-84
2022/02/15 08:42:07;;;;;;;6.37;1.77;;;7.20;99.90;;;;;;5034045;28;20635;-83
2022/02/15 08:44:34;;;;;;;7.67;2.47;;;7.20;99.90;;;;;;5009226;28;20217;-84
2022/02/15 08:47:08;;;;;;;13.80;2.40;;;7.30;99.90;;;;;;5013271;28;20181;-85
2022/02/15 08:49:35;;;;;;;12.20;2.77;;;7.40;99.90;;;;;;5024866;28;20643;-83
2022/02/15 08:52:01;;;;;;;8.93;2.57;;;7.30;99.90;;;;;;5001289;28;20182;-86
2022/02/15 08:54:27;;;;;;;8.20;1.97;;;7.40;99.90;;;;;;4996570;28;20552;-83
2022/02/15 08:56:52;;;;;;;10.80;2.47;;;7.40;99.90;;;;;;4996939;28;20180;-87
2022/02/15 08:59:18;;;;;;;10.03;2.50;;;7.40;99.90;;;;;;4997030;28;20270;-85
2022/02/15 09:01:44;;;;;;;7.93;1.90;;;7.40;99.90;;;;;;5013749;28;20217;-85
2022/02/15 09:04:09;;;;;;;6.93;2.07;;;7.40;99.90;;;;;;5013271;28;20674;-86
2022/02/15 09:06:37;;;;;;;6.40;2.13;;;7.50;99.90;;;;;;5013227;28;20178;-85
2022/02/15 09:09:03;;;;;;;7.47;1.80;;;7.50;99.90;;;;;;4996300;28;20566;-82
2022/02/15 09:11:29;;;;;;;5.60;2.53;;;7.50;99.90;;;;;;5023177;28;20230;-83
2022/02/15 09:13:55;;;;;;;9.40;2.10;;;7.60;99.90;;;;;;5015380;28;20237;-82
2022/02/15 09:16:20;;;;;;;11.33;1.90;;;7.60;99.90;;;;;;5015568;28;20194;-82
2022/02/15 09:18:46;;;;;;;14.53;2.90;;;7.60;99.90;;;;;;5016165;28;20559;-84
2022/02/15 09:21:11;;;;;;;11.73;2.43;;;7.50;99.90;;;;;;5015902;28;20192;-86
2022/02/15 09:23:37;;;;;;;9.07;2.33;;;7.50;99.90;;;;;;5029173;28;20247;-85
2022/02/15 09:26:03;;;;;;;12.47;2.60;;;7.50;99.90;;;;;;5013208;28;20280;-85
2022/02/15 09:28:28;;;;;;;11.47;2.73;;;7.60;99.90;;;;;;5022932;28;20270;-83
2022/02/15 09:30:54;;;;;;;10.33;2.27;;;7.80;99.90;;;;;;5018182;28;20236;-85
2022/02/15 09:33:21;;;;;;;12.53;2.50;;;7.80;99.90;;;;;;5001139;28;20219;-81
2022/02/15 09:35:47;;;;;;;13.10;2.83;;;7.90;99.90;;;;;;5027628;28;20186;-84
2022/02/15 09:38:14;;;;;;;6.37;1.80;;;8.00;99.90;;;;;;5010446;28;20308;-92
2022/02/15 09:40:40;;;;;;;13.70;2.60;;;7.80;99.90;;;;;;5015061;28;20209;-83
2022/02/15 09:43:06;;;;;;;7.47;2.13;;;7.80;99.90;;;;;;5032438;28;20212;-83
2022/02/15 09:45:33;;;;;;;6.37;2.40;;;7.90;99.90;;;;;;5008979;28;20500;-83
2022/02/15 09:48:01;;;;;;;7.53;1.93;;;7.90;99.90;;;;;;4996161;28;20184;-82
2022/02/15 09:50:30;;;;;;;9.90;2.27;;;7.90;99.90;;;;;;5013388;28;20180;-83
2022/02/15 09:52:57;;;;;;;5.90;2.20;;;8.00;99.90;;;;;;4996359;28;20210;-82
2022/02/15 09:55:23;;;;;;;8.17;2.33;;;8.10;99.90;;;;;;5014532;28;20240;-82
2022/02/15 09:57:49;;;;;;;9.20;2.03;;;8.10;99.90;;;;;;5033157;28;20583;-83
2022/02/15 10:00:14;;;;;;;11.87;2.97;;;8.10;99.90;;;;;;5012120;28;20265;-83
2022/02/15 10:02:42;;;;;;;10.53;2.40;;;8.10;99.90;;;;;;5015148;28;20619;-84
2022/02/15 10:05:13;;;;;;;13.87;2.60;;;8.10;99.90;;;;;;5033103;28;20181;-83
2022/02/15 10:08:02;;;;;;;7.67;1.93;;;8.20;99.90;;;;;;5032995;28;20214;-83
2022/02/15 10:10:34;;;;;;;7.80;2.10;;;8.20;99.90;;;;;;5032562;28;20542;-83
2022/02/15 10:13:08;;;;;;;6.97;2.63;;;8.30;99.90;;;;;;5032991;28;20170;-83
2022/02/15 10:15:37;;;;;;;11.77;1.90;;;8.40;99.90;;;;;;5010168;28;20599;-83
2022/02/15 10:18:17;;;;;;;9.93;2.20;;;8.40;99.90;;;;;;5013120;28;20220;-82
2022/02/15 10:20:44;;;;;;;9.67;2.07;;;8.40;99.90;;;;;;5013761;28;20273;-84
2022/02/15 10:23:13;;;;;;;5.67;1.67;;;8.40;99.90;;;;;;5032887;28;20176;-83
2022/02/15 10:25:39;;;;;;;7.90;1.87;;;8.50;99.90;;;;;;5014997;28;20659;-84
2022/02/15 10:28:33;;;;;;;9.33;1.90;;;8.60;99.90;;;;;;5015151;28;20275;-83
2022/02/15 10:31:03;;;;;;;5.87;1.50;;;8.70;99.90;;;;;;5011939;28;20278;-83
2022/02/15 10:33:34;;;;;;;8.33;1.83;;;8.70;99.90;;;;;;5021700;28;20180;-83
2022/02/15 10:36:08;;;;;;;9.97;1.67;;;8.70;99.90;;;;;;5018050;28;20205;-82
2022/02/15 10:38:35;;;;;;;7.13;1.70;;;8.80;99.90;;;;;;5030595;28;20244;-82
2022/02/15 10:41:04;;;;;;;7.00;1.93;;;8.70;99.90;;;;;;5000110;28;20188;-82
2022/02/15 10:43:42;;;;;;;10.03;1.93;;;8.70;99.90;;;;;;5009409;28;20187;-84
2022/02/15 10:46:09;;;;;;;8.63;2.03;;;8.80;99.90;;;;;;5013459;28;20727;-81
2022/02/15 10:48:35;;;;;;;6.57;1.80;;;9.00;99.90;;;;;;5018746;28;20269;-81
2022/02/15 10:51:01;;;;;;;7.77;1.97;;;9.20;99.90;;;;;;5013394;28;20271;-84
2022/02/15 10:53:27;;;;;;;11.17;1.83;;;9.20;99.90;;;;;;5016020;28;20180;-81
2022/02/15 10:55:53;;;;;;;6.67;1.40;;;9.30;99.90;;;;;;4997562;28;20546;-82
2022/02/15 10:58:18;;;;;;;13.33;2.23;;;9.70;99.90;;;;;;5014673;28;20211;-81
2022/02/15 11:00:45;;;;;;;9.73;2.03;;;10.50;99.90;;;;;;5009312;28;20219;-81
2022/02/15 11:03:13;;;;;;;9.20;1.73;;;10.90;99.90;;;;;;5035996;28;20200;-84
2022/02/15 11:05:40;;;;;;;9.77;1.83;;;11.20;99.90;;;;;;5021718;28;20236;-82
2022/02/15 11:08:07;;;;;;;10.17;1.90;;;12.00;99.90;;;;;;5024190;28;20182;-82
2022/02/15 11:10:41;;;;;;;6.87;1.80;;;12.70;99.90;;;;;;5035774;28;20183;-82
2022/02/15 11:13:07;;;;;;;6.37;1.60;;;13.40;99.90;;;;;;5021972;28;20181;-81
2022/02/15 11:15:34;;;;;;;5.90;1.63;;;13.70;99.90;;;;;;5016042;28;20237;-82
2022/02/15 11:18:03;;;;;;;5.60;1.27;;;14.00;99.90;;;;;;5015812;28;20202;-82
2022/02/15 11:20:30;;;;;;;7.90;1.67;;;13.80;99.90;;;;;;4997165;28;20187;-82
2022/02/15 11:22:59;;;;;;;8.70;2.07;;;14.30;99.90;;;;;;5015409;28;20625;-82
2022/02/15 11:25:44;;;;;;;6.87;1.43;;;15.10;98.70;;;;;;5026682;28;20664;-82
2022/02/15 11:28:17;;;;;;;5.80;2.00;;;14.20;99.10;;;;;;5008640;28;20179;-82
2022/02/15 11:30:52;;;;;;;8.17;1.60;;;13.50;99.90;;;;;;5016980;28;20248;-82
2022/02/15 11:33:43;;;;;;;5.67;1.40;;;13.30;99.90;;;;;;5031003;28;20176;-84
2022/02/15 11:36:14;;;;;;;5.97;1.60;;;13.20;99.90;;;;;;5024135;28;20187;-82
2022/02/15 11:38:57;;;;;;;5.30;1.67;;;13.40;99.90;;;;;;5035174;28;20235;-84
2022/02/15 11:41:25;;;;;;;7.30;1.40;;;13.90;99.80;;;;;;5016255;28;20548;-81
2022/02/15 11:43:59;;;;;;;7.90;1.60;;;14.10;99.00;;;;;;5017151;28;20562;-83
2022/02/15 11:46:43;;;;;;;6.70;1.77;;;13.70;99.80;;;;;;5034068;28;20170;-81
2022/02/15 11:49:11;;;;;;;6.23;2.03;;;14.20;99.50;;;;;;5034928;28;20168;-82
2022/02/15 11:51:38;;;;;;;4.07;1.20;;;14.90;97.80;;;;;;5034697;28;20177;-82
2022/02/15 11:54:09;;;;;;;8.53;1.60;;;15.10;97.00;;;;;;5005778;28;20649;-81
2022/02/15 11:56:35;;;;;;;5.10;1.50;;;15.20;97.20;;;;;;5013973;28;20223;-82
2022/02/15 11:59:11;;;;;;;6.47;1.67;;;14.80;97.10;;;;;;5013666;28;20661;-82
2022/02/15 12:01:37;;;;;;;6.43;1.43;;;14.40;97.80;;;;;;4997315;28;20306;-81
2022/02/15 12:04:08;;;;;;;5.33;1.60;;;13.50;98.90;;;;;;5025610;28;20302;-84
2022/02/15 12:06:42;;;;;;;9.17;1.87;;;12.70;99.90;;;;;;5025083;28;20178;-81
2022/02/15 12:09:08;;;;;;;9.03;1.50;;;12.30;99.90;;;;;;5003458;28;20273;-83
2022/02/15 12:11:41;;;;;;;8.67;1.87;;;12.20;99.90;;;;;;5016225;28;20170;-81
2022/02/15 12:14:12;;;;;;;11.70;1.77;;;12.20;99.90;;;;;;5015356;28;20212;-82
2022/02/15 12:16:43;;;;;;;5.03;1.37;;;11.90;99.90;;;;;;5035190;28;20183;-84
2022/02/15 12:19:21;;;;;;;7.93;1.80;;;12.30;99.90;;;;;;5015740;28;20256;-82
2022/02/15 12:21:47;;;;;;;4.30;1.50;;;13.20;99.90;;;;;;5012772;28;20172;-82
2022/02/15 12:24:12;;;;;;;6.10;1.57;;;13.20;99.90;;;;;;5014339;28;20666;-82
2022/02/15 12:26:39;;;;;;;5.93;1.37;;;13.50;99.90;;;;;;5013750;28;20176;-83
2022/02/15 12:29:06;;;;;;;6.17;1.13;;;13.90;99.70;;;;;;4997074;28;20211;-82
2022/02/15 12:31:32;;;;;;;7.60;1.20;;;14.20;99.30;;;;;;4996950;28;20180;-81
2022/02/15 12:33:58;;;;;;;6.13;1.70;;;14.50;99.10;;;;;;5014543;28;20166;-83
2022/02/15 12:36:24;;;;;;;8.50;1.40;;;14.80;98.40;;;;;;5002156;28;20278;-81
2022/02/15 12:38:53;;;;;;;9.20;1.70;;;14.40;98.90;;;;;;5006995;28;20298;-83
2022/02/15 12:41:20;;;;;;;8.27;1.60;;;14.00;99.50;;;;;;4996743;28;20203;-81
2022/02/15 12:43:47;;;;;;;8.50;1.57;;;13.70;99.90;;;;;;5025905;28;20281;-81
2022/02/15 12:46:14;;;;;;;5.30;1.30;;;13.50;99.90;;;;;;5027699;28;20182;-82
2022/02/15 12:48:41;;;;;;;6.00;1.50;;;13.50;99.90;;;;;;5010790;28;20203;-82
2022/02/15 12:51:07;;;;;;;8.93;1.83;;;13.70;99.90;;;;;;5004520;28;20719;-81
2022/02/15 12:53:33;;;;;;;6.43;1.20;;;13.90;99.90;;;;;;4996472;28;20668;-83
2022/02/15 12:56:05;;;;;;;8.40;1.50;;;14.20;99.60;;;;;;5026740;28;20194;-81
2022/02/15 12:58:32;;;;;;;11.23;1.77;;;14.10;99.40;;;;;;5033391;28;20204;-81